Time;durP1;ratioP1;P1;durP2;ratioP2;P2;SDS_P1;SDS_P2;PMS_P1;PMS_P2;Temp;Humidity;BMP_temperature;BMP_pressure;BME280_temperature;BME280_humidity;BME280_pressure;Samples;Min_cycle;Max_cycle;Signal;HPM_P1;HPM_P2
2022/07/26 00:00:18;;;;;;;12.13;4.10;;;17.30;99.90;;;;;;4975397;28;20223;-80
2022/07/26 00:02:46;;;;;;;9.57;4.10;;;17.30;99.90;;;;;;4975565;28;20313;-79
2022/07/26 00:05:13;;;;;;;8.57;3.97;;;17.30;99.90;;;;;;4969772;28;20628;-81
2022/07/26 00:07:39;;;;;;;11.27;4.30;;;17.30;99.90;;;;;;4983465;28;20231;-79
2022/07/26 00:10:07;;;;;;;9.80;3.80;;;17.30;99.90;;;;;;4984772;28;20736;-80
2022/07/26 00:12:34;;;;;;;8.37;3.63;;;17.30;99.90;;;;;;4986905;28;20312;-79
2022/07/26 00:15:02;;;;;;;10.27;4.00;;;17.20;99.90;;;;;;4989638;28;20312;-82
2022/07/26 00:17:29;;;;;;;9.90;3.57;;;17.20;99.90;;;;;;4976447;28;20309;-80
2022/07/26 00:19:56;;;;;;;7.23;3.03;;;17.20;99.90;;;;;;4987247;28;20705;-80
2022/07/26 00:25:10;;;;;;;10.00;4.43;;;17.10;99.90;;;;;;4971587;28;20320;-80
2022/07/26 00:27:37;;;;;;;10.57;4.30;;;17.20;99.90;;;;;;4983550;28;20225;-82
2022/07/26 00:30:08;;;;;;;8.67;3.80;;;17.10;99.90;;;;;;4976484;28;20230;-82
2022/07/26 00:32:34;;;;;;;7.80;3.90;;;17.10;99.90;;;;;;4972104;28;20237;-81
2022/07/26 00:35:01;;;;;;;8.70;3.93;;;17.10;99.90;;;;;;4973528;28;20308;-80
2022/07/26 00:37:29;;;;;;;9.27;3.80;;;17.10;99.90;;;;;;4977406;28;20228;-81
2022/07/26 00:39:56;;;;;;;8.00;3.63;;;17.00;99.90;;;;;;4980780;28;20230;-82
2022/07/26 00:42:22;;;;;;;6.23;3.10;;;17.00;99.90;;;;;;4970880;28;20233;-79
2022/07/26 00:44:49;;;;;;;7.43;3.00;;;17.00;99.90;;;;;;4970507;28;20225;-78
2022/07/26 00:47:17;;;;;;;5.73;3.40;;;17.00;99.90;;;;;;4978138;28;20230;-80
2022/07/26 00:49:44;;;;;;;9.07;2.80;;;16.90;99.90;;;;;;4977040;28;20238;-84
2022/07/26 00:52:11;;;;;;;8.98;3.60;;;17.00;99.90;;;;;;4989221;28;20229;-80
2022/07/26 00:54:41;;;;;;;8.23;3.27;;;16.90;99.90;;;;;;4968285;28;20230;-79
2022/07/26 00:57:08;;;;;;;4.50;2.73;;;16.90;99.90;;;;;;4977108;28;20689;-79
2022/07/26 00:59:35;;;;;;;6.60;2.50;;;16.90;99.90;;;;;;4968062;28;20237;-80
2022/07/26 01:02:02;;;;;;;7.18;2.97;;;16.90;99.90;;;;;;4983414;28;20221;-80
2022/07/26 01:04:30;;;;;;;4.67;3.00;;;16.90;99.90;;;;;;4979078;28;20235;-81
2022/07/26 01:07:00;;;;;;;9.73;3.00;;;16.90;99.90;;;;;;4975471;28;20223;-80
2022/07/26 01:09:26;;;;;;;7.10;2.90;;;16.90;99.90;;;;;;4978397;28;20240;-79
2022/07/26 01:11:53;;;;;;;5.50;2.60;;;16.90;99.90;;;;;;4981399;28;20225;-81
2022/07/26 01:14:21;;;;;;;10.40;3.10;;;16.90;99.90;;;;;;4976239;28;20226;-81
2022/07/26 01:16:47;;;;;;;9.20;3.13;;;16.90;99.90;;;;;;4975947;28;20223;-81
2022/07/26 01:19:14;;;;;;;9.63;3.10;;;16.90;99.90;;;;;;4971682;28;20230;-80
2022/07/26 01:21:43;;;;;;;8.57;3.97;;;16.90;99.90;;;;;;4980423;28;20214;-79
2022/07/26 01:24:10;;;;;;;9.90;4.40;;;16.90;99.90;;;;;;4974502;28;20218;-81
2022/07/26 01:26:36;;;;;;;16.13;12.27;;;16.90;99.90;;;;;;4973910;28;20721;-80
2022/07/26 01:29:04;;;;;;;29.27;19.17;;;16.90;99.90;;;;;;4975684;28;20774;-79
2022/07/26 01:31:31;;;;;;;26.90;18.80;;;16.90;99.90;;;;;;4972744;28;20237;-80
2022/07/26 01:33:58;;;;;;;27.17;19.70;;;16.80;99.90;;;;;;4976287;28;20811;-80
2022/07/26 01:36:25;;;;;;;22.77;17.53;;;16.80;99.90;;;;;;4972756;28;20262;-81
2022/07/26 01:38:53;;;;;;;27.37;16.23;;;16.80;99.90;;;;;;4980411;28;20250;-82
2022/07/26 01:41:20;;;;;;;23.67;14.17;;;16.80;99.90;;;;;;4976851;28;20589;-78
2022/07/26 01:43:46;;;;;;;19.90;11.67;;;16.80;99.90;;;;;;4990631;28;20893;-81
2022/07/26 01:46:13;;;;;;;15.83;11.50;;;16.70;99.90;;;;;;4969764;28;20473;-80
2022/07/26 01:48:40;;;;;;;14.07;10.13;;;16.70;99.90;;;;;;4983916;28;20233;-80
2022/07/26 01:51:07;;;;;;;19.97;10.17;;;16.70;99.90;;;;;;4979532;28;20230;-81
2022/07/26 01:53:33;;;;;;;17.13;9.03;;;16.60;99.90;;;;;;5001043;28;20227;-80
2022/07/26 01:56:01;;;;;;;20.33;8.97;;;16.50;99.90;;;;;;5008514;28;20236;-80
2022/07/26 01:58:28;;;;;;;13.30;8.17;;;16.50;99.90;;;;;;5007391;28;20229;-80
2022/07/26 02:00:55;;;;;;;17.10;7.67;;;16.40;99.90;;;;;;5008398;28;20884;-79
2022/07/26 02:03:21;;;;;;;13.37;6.50;;;16.40;99.90;;;;;;4995312;28;20308;-79
2022/07/26 02:05:48;;;;;;;10.93;5.97;;;16.30;99.90;;;;;;4987463;28;20239;-79
2022/07/26 02:08:15;;;;;;;10.93;5.17;;;16.30;99.90;;;;;;4975387;28;20256;-78
2022/07/26 02:13:28;;;;;;;11.80;5.17;;;16.20;99.90;;;;;;4987652;28;20229;-80
2022/07/26 02:15:54;;;;;;;9.83;4.73;;;16.10;99.90;;;;;;5000331;28;20232;-81
2022/07/26 02:18:21;;;;;;;9.53;4.33;;;16.10;99.90;;;;;;4986568;28;20222;-79
2022/07/26 02:20:48;;;;;;;12.40;4.10;;;16.10;99.90;;;;;;4980885;28;20865;-80
2022/07/26 02:23:14;;;;;;;8.40;3.70;;;16.10;99.90;;;;;;4974799;28;20613;-83
2022/07/26 02:25:41;;;;;;;10.57;4.07;;;16.00;99.90;;;;;;4975902;28;20230;-79
2022/07/26 02:28:08;;;;;;;8.23;3.70;;;16.00;99.90;;;;;;4975566;28;20235;-79
2022/07/26 02:30:37;;;;;;;11.93;4.03;;;16.00;99.90;;;;;;4983777;28;20240;-81
2022/07/26 02:33:03;;;;;;;11.70;4.17;;;16.00;99.90;;;;;;4983362;28;20376;-83
2022/07/26 02:35:31;;;;;;;10.43;3.93;;;16.00;99.90;;;;;;4971936;28;20714;-81
2022/07/26 02:38:01;;;;;;;12.47;3.70;;;16.00;99.90;;;;;;4985664;28;20234;-80
2022/07/26 02:40:28;;;;;;;8.47;3.67;;;16.00;99.90;;;;;;4972235;28;20233;-82
2022/07/26 02:42:55;;;;;;;10.80;4.03;;;15.90;99.90;;;;;;4981869;28;20235;-83
2022/07/26 02:45:21;;;;;;;11.63;3.87;;;16.00;99.90;;;;;;4994756;28;20319;-81
2022/07/26 02:47:51;;;;;;;11.73;4.20;;;15.90;99.90;;;;;;4984539;28;20233;-83
2022/07/26 02:50:19;;;;;;;12.90;3.63;;;15.90;99.90;;;;;;4987555;28;20232;-84
2022/07/26 02:52:47;;;;;;;11.50;3.53;;;15.90;99.90;;;;;;4982561;28;20240;-80
2022/07/26 02:55:13;;;;;;;9.67;3.70;;;15.90;99.90;;;;;;4978870;28;20217;-79
2022/07/26 02:57:40;;;;;;;9.60;3.30;;;15.90;99.90;;;;;;4964737;28;20922;-79
2022/07/26 03:00:13;;;;;;;9.13;3.17;;;15.90;99.90;;;;;;4966470;28;20738;-80
2022/07/26 03:02:40;;;;;;;10.77;3.80;;;15.90;99.90;;;;;;4973192;28;20252;-80
2022/07/26 03:05:09;;;;;;;13.13;3.80;;;15.80;99.90;;;;;;4982587;28;20613;-79
2022/07/26 03:07:36;;;;;;;10.33;3.47;;;15.80;99.90;;;;;;4976676;28;20248;-80
2022/07/26 03:10:03;;;;;;;11.17;3.50;;;15.80;99.90;;;;;;4976889;28;20605;-79
2022/07/26 03:12:30;;;;;;;9.47;3.10;;;15.80;99.90;;;;;;4975883;28;20876;-81
2022/07/26 03:14:57;;;;;;;13.93;3.90;;;15.80;99.90;;;;;;4977859;28;20252;-81
2022/07/26 03:17:24;;;;;;;13.10;3.93;;;15.80;99.90;;;;;;4984009;28;20579;-80
2022/07/26 03:19:52;;;;;;;12.90;3.90;;;15.80;99.90;;;;;;4985198;28;20311;-79
2022/07/26 03:22:20;;;;;;;12.27;3.70;;;15.80;99.90;;;;;;4970827;28;20313;-79
2022/07/26 03:24:46;;;;;;;13.87;3.83;;;15.80;99.90;;;;;;4987398;28;20253;-79
2022/07/26 03:27:13;;;;;;;10.73;3.20;;;15.90;99.90;;;;;;4989892;28;20224;-80
2022/07/26 03:29:40;;;;;;;10.27;3.17;;;15.90;99.90;;;;;;4971209;28;20233;-79
2022/07/26 03:32:07;;;;;;;8.27;3.20;;;15.90;99.90;;;;;;4972379;28;20226;-79
2022/07/26 03:34:34;;;;;;;12.67;3.93;;;15.90;99.90;;;;;;4969747;28;20230;-83
2022/07/26 03:37:01;;;;;;;9.37;3.13;;;16.00;99.90;;;;;;4973052;28;20222;-79
2022/07/26 03:39:33;;;;;;;10.57;3.77;;;16.10;99.90;;;;;;4968825;28;20318;-80
2022/07/26 03:41:59;;;;;;;9.97;3.30;;;16.10;99.90;;;;;;4990270;28;20271;-79
2022/07/26 03:44:26;;;;;;;10.60;3.10;;;16.10;99.90;;;;;;4994532;28;20232;-85
2022/07/26 03:46:53;;;;;;;10.27;3.50;;;16.20;99.90;;;;;;4985222;28;20229;-82
2022/07/26 03:49:19;;;;;;;9.53;3.07;;;16.20;99.90;;;;;;4974710;28;20221;-83
2022/07/26 03:51:46;;;;;;;11.67;3.80;;;16.20;99.90;;;;;;5031004;23;20213;-87
2022/07/26 03:54:13;;;;;;;12.93;3.83;;;16.30;99.90;;;;;;5029241;28;20239;-87
2022/07/26 03:56:40;;;;;;;9.50;3.10;;;16.30;99.90;;;;;;5029779;28;20238;-84
2022/07/26 03:59:09;;;;;;;9.10;3.23;;;16.30;99.90;;;;;;5008030;28;20229;-84
2022/07/26 04:01:40;;;;;;;12.10;3.20;;;16.30;99.90;;;;;;5016912;28;20236;-84
2022/07/26 04:04:07;;;;;;;11.67;3.57;;;16.30;99.90;;;;;;5029169;28;20230;-83
2022/07/26 04:06:34;;;;;;;15.17;4.07;;;16.40;99.90;;;;;;5046711;28;20235;-86
2022/07/26 04:09:01;;;;;;;13.33;3.57;;;16.40;99.90;;;;;;5039081;28;20238;-84
2022/07/26 04:11:27;;;;;;;8.03;3.17;;;16.40;99.90;;;;;;5044473;28;20226;-84
2022/07/26 04:13:56;;;;;;;15.10;4.20;;;16.40;99.90;;;;;;5055287;28;20724;-84
2022/07/26 04:16:22;;;;;;;10.33;4.20;;;16.40;99.90;;;;;;5065823;28;20231;-85
2022/07/26 04:18:49;;;;;;;11.17;3.70;;;16.40;99.90;;;;;;5056355;28;20223;-85
2022/07/26 04:21:16;;;;;;;12.83;3.90;;;16.50;99.90;;;;;;5040545;28;20229;-84
2022/07/26 04:23:43;;;;;;;14.90;3.93;;;16.40;99.90;;;;;;5029036;28;20255;-84
2022/07/26 04:26:12;;;;;;;12.67;3.77;;;16.50;99.90;;;;;;5026728;28;20686;-84
2022/07/26 04:28:38;;;;;;;9.57;4.03;;;16.50;99.90;;;;;;5029034;28;20228;-85
2022/07/26 04:31:07;;;;;;;12.73;3.70;;;16.60;99.90;;;;;;5027309;28;20236;-84
2022/07/26 04:33:34;;;;;;;12.53;3.93;;;16.60;99.90;;;;;;5028368;28;20335;-85
2022/07/26 04:36:02;;;;;;;10.47;3.50;;;16.70;99.90;;;;;;5029457;28;20315;-85
2022/07/26 04:38:28;;;;;;;9.57;3.80;;;16.70;99.90;;;;;;5063857;28;20743;-83
2022/07/26 04:40:56;;;;;;;12.63;3.13;;;16.70;99.90;;;;;;5064886;28;20233;-83
2022/07/26 04:43:23;;;;;;;11.57;3.83;;;16.80;99.90;;;;;;5046916;28;20228;-85
2022/07/26 04:45:50;;;;;;;16.17;4.63;;;16.80;99.90;;;;;;5047618;28;20224;-85
2022/07/26 04:48:18;;;;;;;11.73;4.13;;;16.80;99.90;;;;;;5046359;28;20261;-85
2022/07/26 04:50:45;;;;;;;14.07;4.97;;;16.90;99.90;;;;;;5047358;28;20771;-85
2022/07/26 04:53:11;;;;;;;12.47;4.20;;;16.90;99.90;;;;;;5047358;28;20235;-84
2022/07/26 04:55:39;;;;;;;16.20;4.80;;;16.90;99.90;;;;;;5046859;28;20857;-85
2022/07/26 04:58:06;;;;;;;19.10;5.67;;;17.00;99.90;;;;;;5046552;28;20692;-85
2022/07/26 05:00:33;;;;;;;7.90;3.00;;;17.00;99.90;;;;;;5023639;28;20232;-81
2022/07/26 05:03:01;;;;;;;14.93;3.83;;;17.00;99.90;;;;;;5023294;28;20228;-82
2022/07/26 05:05:31;;;;;;;11.00;2.80;;;17.00;99.90;;;;;;5041525;28;20238;-82
2022/07/26 05:08:00;;;;;;;5.23;2.50;;;16.90;99.90;;;;;;5044326;28;20243;-82
2022/07/26 05:10:29;;;;;;;5.17;2.50;;;16.70;99.90;;;;;;5034893;28;20232;-82
2022/07/26 05:12:56;;;;;;;2.67;1.80;;;16.60;99.90;;;;;;5042442;28;20311;-82
2022/07/26 05:15:23;;;;;;;5.83;2.30;;;16.50;99.90;;;;;;5043843;28;20245;-82
2022/07/26 05:17:49;;;;;;;3.30;1.90;;;16.30;99.90;;;;;;5043574;28;20696;-82
2022/07/26 05:20:17;;;;;;;3.40;1.90;;;16.20;99.90;;;;;;5046433;28;20246;-83
2022/07/26 05:22:45;;;;;;;7.63;1.93;;;16.10;99.90;;;;;;5043622;28;20223;-83
2022/07/26 05:25:12;;;;;;;5.93;2.20;;;16.00;99.90;;;;;;5032715;28;20224;-80
2022/07/26 05:27:40;;;;;;;5.77;2.40;;;15.90;99.90;;;;;;5043366;28;20234;-79
2022/07/26 05:30:08;;;;;;;3.57;2.13;;;15.90;99.90;;;;;;5036252;28;20232;-79
2022/07/26 05:32:35;;;;;;;9.77;2.90;;;15.80;99.90;;;;;;5050048;28;20234;-80
2022/07/26 05:35:02;;;;;;;11.20;3.27;;;15.80;99.90;;;;;;5044017;28;20232;-79
2022/07/26 05:37:28;;;;;;;39.63;5.93;;;15.70;99.90;;;;;;5034292;28;20223;-78
2022/07/26 05:39:56;;;;;;;9.47;3.43;;;15.70;99.90;;;;;;5042355;28;20713;-79
2022/07/26 05:42:24;;;;;;;5.33;3.03;;;15.60;99.90;;;;;;5039800;28;20974;-79
2022/07/26 05:48:34;;;;;;;4.33;2.50;;;15.50;99.90;;;;;;4961936;28;20234;-80
2022/07/26 05:51:01;;;;;;;6.10;3.27;;;15.60;99.90;;;;;;5043509;28;20219;-80
2022/07/26 05:53:28;;;;;;;4.50;3.47;;;15.50;99.90;;;;;;5051180;28;20731;-79
2022/07/26 05:55:56;;;;;;;5.30;3.37;;;15.50;99.90;;;;;;5047710;28;20233;-80
2022/07/26 05:58:22;;;;;;;4.50;3.00;;;15.50;99.90;;;;;;5045350;28;20229;-80
2022/07/26 06:00:49;;;;;;;4.37;3.30;;;15.50;99.90;;;;;;5048196;28;20773;-80
2022/07/26 06:03:22;;;;;;;5.27;2.90;;;15.50;99.90;;;;;;5037087;28;20227;-80
2022/07/26 06:05:49;;;;;;;5.17;3.60;;;15.50;99.90;;;;;;5043242;28;20229;-79
2022/07/26 06:08:17;;;;;;;5.63;3.63;;;15.50;99.90;;;;;;5034972;28;20235;-79
2022/07/26 06:10:44;;;;;;;4.30;2.90;;;15.60;99.90;;;;;;5050637;28;20753;-79
2022/07/26 06:13:12;;;;;;;4.10;3.30;;;15.60;99.90;;;;;;5043554;28;20227;-79
2022/07/26 06:15:39;;;;;;;6.80;3.50;;;15.70;99.90;;;;;;5056439;28;20716;-80
2022/07/26 06:18:06;;;;;;;7.33;3.80;;;15.70;99.90;;;;;;5063462;28;20230;-80
2022/07/26 06:20:33;;;;;;;6.17;3.73;;;15.70;99.90;;;;;;5051705;28;20605;-80
2022/07/26 06:23:00;;;;;;;6.30;3.70;;;15.80;99.90;;;;;;5043630;28;20248;-80
2022/07/26 06:25:27;;;;;;;7.63;4.20;;;15.80;99.90;;;;;;5046329;28;20732;-80
2022/07/26 06:27:54;;;;;;;5.83;4.30;;;15.90;99.90;;;;;;5049104;28;20235;-80
2022/07/26 06:30:22;;;;;;;9.27;4.53;;;16.00;99.90;;;;;;5048504;28;20236;-80
2022/07/26 06:32:48;;;;;;;10.47;4.87;;;16.00;99.90;;;;;;5052871;28;20221;-81
2022/07/26 06:35:15;;;;;;;9.50;4.77;;;16.20;99.90;;;;;;5059694;28;20230;-80
2022/07/26 06:37:43;;;;;;;7.17;4.07;;;16.40;99.90;;;;;;5046040;28;20267;-80
2022/07/26 06:40:11;;;;;;;8.57;3.77;;;16.50;99.90;;;;;;5049265;28;20735;-80
2022/07/26 06:42:38;;;;;;;7.80;3.70;;;16.70;99.90;;;;;;5043877;28;20246;-81
2022/07/26 06:45:06;;;;;;;7.13;3.40;;;16.80;99.90;;;;;;5064542;28;20226;-80
2022/07/26 06:47:35;;;;;;;7.13;3.20;;;16.90;99.90;;;;;;5047875;28;20796;-80
2022/07/26 06:50:02;;;;;;;6.97;3.20;;;17.00;99.90;;;;;;5045514;28;20902;-80
2022/07/26 06:52:28;;;;;;;5.47;2.97;;;17.00;99.90;;;;;;5047360;28;20230;-80
2022/07/26 06:54:55;;;;;;;6.33;2.97;;;17.10;99.90;;;;;;5049067;28;20306;-81
2022/07/26 06:57:22;;;;;;;6.33;2.50;;;17.20;99.90;;;;;;5046273;28;20720;-81
2022/07/26 06:59:48;;;;;;;7.50;2.70;;;17.30;99.90;;;;;;5048029;28;20233;-80
2022/07/26 07:02:15;;;;;;;4.67;2.20;;;17.40;99.90;;;;;;5048941;28;20220;-80
2022/07/26 07:04:43;;;;;;;6.90;2.70;;;17.50;99.90;;;;;;5045261;28;20229;-80
2022/07/26 07:07:09;;;;;;;4.70;2.50;;;17.60;99.90;;;;;;5051035;28;20226;-79
2022/07/26 07:09:36;;;;;;;5.93;2.40;;;17.60;99.90;;;;;;5043572;28;20220;-79
2022/07/26 07:12:04;;;;;;;4.77;2.07;;;17.60;99.90;;;;;;5041643;28;20242;-79
2022/07/26 07:14:31;;;;;;;6.10;2.20;;;17.60;99.90;;;;;;5043007;28;20239;-79
2022/07/26 07:16:58;;;;;;;6.13;1.83;;;17.60;99.90;;;;;;5049089;28;20219;-78
2022/07/26 07:19:25;;;;;;;2.47;1.57;;;17.60;99.90;;;;;;5055939;28;20231;-79
2022/07/26 07:21:53;;;;;;;3.10;1.60;;;17.50;99.90;;;;;;5057151;28;20976;-79
2022/07/26 07:24:20;;;;;;;3.50;1.27;;;17.40;99.90;;;;;;5061329;28;20880;-79
2022/07/26 07:26:47;;;;;;;5.13;1.60;;;17.30;99.90;;;;;;5055313;28;20232;-80
2022/07/26 07:29:16;;;;;;;3.67;1.33;;;17.10;99.90;;;;;;5048795;28;20221;-79
2022/07/26 07:31:44;;;;;;;4.37;1.37;;;17.00;99.90;;;;;;5056930;28;20223;-79
2022/07/26 07:34:10;;;;;;;4.23;1.70;;;17.00;99.90;;;;;;5055391;28;20722;-78
2022/07/26 07:36:37;;;;;;;2.83;1.37;;;17.10;99.90;;;;;;5052732;28;20229;-79
2022/07/26 07:39:05;;;;;;;3.83;1.30;;;17.40;99.90;;;;;;5039351;28;20221;-80
2022/07/26 07:41:33;;;;;;;2.50;1.37;;;17.70;99.90;;;;;;5048774;28;20757;-78
2022/07/26 07:43:59;;;;;;;2.43;1.37;;;18.10;99.90;;;;;;5034381;28;20307;-79
2022/07/26 07:46:26;;;;;;;3.27;1.43;;;18.40;99.90;;;;;;5061455;28;20309;-80
2022/07/26 07:48:53;;;;;;;4.60;1.60;;;18.70;99.90;;;;;;5053377;28;20219;-79
2022/07/26 07:51:20;;;;;;;2.45;1.00;;;19.00;99.90;;;;;;5040455;28;20315;-79
2022/07/26 07:53:46;;;;;;;3.70;1.10;;;19.20;99.90;;;;;;5036171;28;20212;-79
2022/07/26 07:56:14;;;;;;;4.70;1.20;;;19.40;99.90;;;;;;5040983;28;20311;-80
2022/07/26 07:58:41;;;;;;;3.67;0.90;;;19.60;99.90;;;;;;5048185;28;20224;-80
2022/07/26 08:01:08;;;;;;;4.15;1.02;;;19.60;99.90;;;;;;5051238;28;20385;-79
2022/07/26 08:03:35;;;;;;;2.70;0.83;;;19.60;99.90;;;;;;5056252;28;20809;-80
2022/07/26 08:06:02;;;;;;;2.20;0.80;;;19.40;99.90;;;;;;5046000;28;20224;-79
2022/07/26 08:08:29;;;;;;;2.97;0.90;;;19.10;99.90;;;;;;5053924;28;20573;-80
2022/07/26 08:10:56;;;;;;;4.27;1.00;;;18.80;99.90;;;;;;5052065;28;20223;-79
2022/07/26 08:13:24;;;;;;;2.70;1.37;;;18.50;99.90;;;;;;5054336;28;20839;-80
2022/07/26 08:15:51;;;;;;;3.00;0.90;;;18.30;99.90;;;;;;5048452;28;20224;-79
2022/07/26 08:18:18;;;;;;;3.97;1.00;;;18.30;99.90;;;;;;5043062;28;20227;-80
2022/07/26 08:20:44;;;;;;;3.43;1.00;;;18.30;99.90;;;;;;5049200;28;20232;-79
2022/07/26 08:23:11;;;;;;;3.65;0.88;;;18.50;99.90;;;;;;5044808;28;20253;-79
2022/07/26 08:25:38;;;;;;;3.22;0.85;;;18.80;99.90;;;;;;5058352;28;20250;-80
2022/07/26 08:28:05;;;;;;;2.75;0.70;;;19.30;99.90;;;;;;5047126;28;20224;-79
2022/07/26 08:30:33;;;;;;;3.17;1.20;;;19.80;99.90;;;;;;5055959;28;20290;-80
2022/07/26 08:33:00;;;;;;;2.75;1.05;;;20.30;99.90;;;;;;5057024;28;20224;-79
2022/07/26 08:35:28;;;;;;;2.05;0.70;;;20.80;99.90;;;;;;5045301;28;20229;-80
2022/07/26 08:37:55;;;;;;;2.72;0.80;;;21.20;99.90;;;;;;5059629;28;20235;-79
2022/07/26 08:40:22;;;;;;;4.20;1.20;;;21.50;99.90;;;;;;5056531;28;20224;-80
2022/07/26 08:42:49;;;;;;;5.95;1.15;;;21.70;99.90;;;;;;5049937;28;20229;-80
2022/07/26 08:45:21;;;;;;;2.22;0.88;;;21.90;99.90;;;;;;5064645;28;21040;-80
2022/07/26 08:47:49;;;;;;;5.72;0.90;;;21.90;99.90;;;;;;5051451;28;20229;-80
2022/07/26 08:50:16;;;;;;;3.80;1.00;;;21.70;99.90;;;;;;5043664;28;20232;-80
2022/07/26 08:52:43;;;;;;;6.30;1.13;;;21.50;99.90;;;;;;5043002;28;20350;-80
2022/07/26 08:55:11;;;;;;;1.73;0.82;;;21.20;99.90;;;;;;5043036;28;20224;-80
2022/07/26 08:57:38;;;;;;;1.98;0.60;;;20.80;99.90;;;;;;5036451;28;20225;-79
2022/07/26 09:00:15;;;;;;;1.70;0.50;;;20.30;99.90;;;;;;5046301;28;20224;-79
2022/07/26 09:02:41;;;;;;;3.27;0.97;;;19.80;99.90;;;;;;5031750;28;20224;-80
2022/07/26 09:05:10;;;;;;;1.05;0.55;;;19.50;99.90;;;;;;5038447;28;20311;-80
2022/07/26 09:07:38;;;;;;;2.72;0.50;;;19.30;99.90;;;;;;5048359;28;20232;-79
2022/07/26 09:10:07;;;;;;;2.47;0.70;;;19.30;99.90;;;;;;5035737;28;20235;-80
2022/07/26 09:12:35;;;;;;;1.52;0.88;;;19.40;99.90;;;;;;5047341;28;20262;-80
2022/07/26 09:15:05;;;;;;;4.70;0.75;;;19.70;99.90;;;;;;5042436;28;20215;-79
2022/07/26 09:17:40;;;;;;;3.83;0.60;;;20.00;99.90;;;;;;5044868;28;20227;-79
2022/07/26 09:20:11;;;;;;;1.58;0.47;;;20.20;99.90;;;;;;5043747;28;20319;-80
2022/07/26 09:22:55;;;;;;;2.42;0.95;;;20.30;99.90;;;;;;5051754;28;20227;-80
2022/07/26 09:25:23;;;;;;;1.90;0.60;;;20.40;99.90;;;;;;5041219;28;20219;-80
2022/07/26 09:27:51;;;;;;;1.75;0.60;;;20.50;99.90;;;;;;5046423;28;20772;-81
2022/07/26 09:30:19;;;;;;;2.03;0.75;;;20.40;99.90;;;;;;5041148;28;20228;-79
2022/07/26 09:32:57;;;;;;;2.42;0.73;;;20.40;99.90;;;;;;5066504;28;20754;-81
2022/07/26 09:35:26;;;;;;;1.85;0.77;;;20.10;99.90;;;;;;5034902;28;20235;-81
2022/07/26 09:37:53;;;;;;;3.13;0.73;;;20.00;99.90;;;;;;5046780;28;20227;-80
2022/07/26 09:40:20;;;;;;;4.27;0.90;;;19.80;99.90;;;;;;5044823;28;20247;-81
2022/07/26 09:42:55;;;;;;;1.95;0.75;;;19.60;99.90;;;;;;5038797;28;20269;-81
2022/07/26 09:45:22;;;;;;;4.32;0.70;;;19.60;99.90;;;;;;5040921;28;20228;-82
2022/07/26 09:47:49;;;;;;;2.78;1.00;;;19.60;99.90;;;;;;5044927;28;20228;-81
2022/07/26 09:50:18;;;;;;;2.13;0.80;;;19.60;99.90;;;;;;5034899;28;20306;-81
2022/07/26 09:53:07;;;;;;;2.75;0.70;;;19.80;99.90;;;;;;5055823;28;20308;-81
2022/07/26 09:55:36;;;;;;;1.92;1.00;;;20.10;99.90;;;;;;5047253;28;20303;-80
2022/07/26 09:58:05;;;;;;;2.55;0.80;;;20.50;99.90;;;;;;5051100;23;20221;-81
2022/07/26 10:00:33;;;;;;;1.88;0.57;;;20.80;99.90;;;;;;4997552;28;20237;-80
2022/07/26 10:03:00;;;;;;;0.90;0.60;;;21.10;99.90;;;;;;5003146;28;20232;-80
2022/07/26 10:05:27;;;;;;;1.88;0.75;;;21.20;99.90;;;;;;4993524;28;20312;-80
2022/07/26 10:07:57;;;;;;;3.30;0.80;;;21.20;99.70;;;;;;5005559;28;20235;-79
2022/07/26 10:10:28;;;;;;;2.90;0.70;;;21.10;99.90;;;;;;5046793;28;20236;-80
2022/07/26 10:12:56;;;;;;;3.28;0.95;;;21.10;99.90;;;;;;5051239;28;20231;-80
2022/07/26 10:15:41;;;;;;;3.50;0.98;;;21.20;99.90;;;;;;5044511;28;20286;-82
2022/07/26 10:18:09;;;;;;;3.33;0.90;;;21.20;99.60;;;;;;5051531;28;20324;-81
2022/07/26 10:20:41;;;;;;;2.67;0.90;;;21.30;99.60;;;;;;5050510;28;20233;-81
2022/07/26 10:23:37;;;;;;;4.85;0.90;;;21.40;99.30;;;;;;5050567;28;20630;-80
2022/07/26 10:26:09;;;;;;;4.43;1.15;;;21.40;99.30;;;;;;5037551;28;20305;-80
2022/07/26 10:28:37;;;;;;;3.90;1.13;;;21.40;98.80;;;;;;5055453;28;20220;-80
2022/07/26 10:31:29;;;;;;;2.33;0.70;;;21.40;98.50;;;;;;5044458;28;20219;-77
2022/07/26 10:33:58;;;;;;;2.92;0.70;;;21.30;98.30;;;;;;5047615;28;20228;-78
2022/07/26 10:36:30;;;;;;;2.75;0.80;;;21.30;98.30;;;;;;5038033;28;20255;-78
2022/07/26 10:38:59;;;;;;;3.05;0.80;;;21.20;97.70;;;;;;5051016;28;20231;-78
2022/07/26 10:41:34;;;;;;;6.05;1.35;;;21.20;97.90;;;;;;5041855;28;21026;-78
2022/07/26 10:44:22;;;;;;;2.38;0.88;;;21.10;97.20;;;;;;5048946;28;20216;-78
2022/07/26 10:46:58;;;;;;;2.08;0.88;;;21.10;97.30;;;;;;5042395;28;20246;-77
2022/07/26 10:49:35;;;;;;;2.40;0.90;;;21.20;97.40;;;;;;5041071;28;20733;-78
2022/07/26 10:52:08;;;;;;;3.17;1.00;;;21.40;97.80;;;;;;5044017;28;20311;-78
2022/07/26 10:55:13;;;;;;;2.25;0.80;;;21.70;97.30;;;;;;5038323;28;20822;-78
2022/07/26 10:57:42;;;;;;;2.85;1.00;;;22.10;97.20;;;;;;5045128;28;20366;-77
2022/07/26 11:00:26;;;;;;;3.65;1.17;;;22.40;96.00;;;;;;5040956;28;20224;-78
2022/07/26 11:02:55;;;;;;;4.32;1.00;;;22.40;94.80;;;;;;5040863;28;20227;-78
2022/07/26 11:05:27;;;;;;;3.90;0.85;;;22.40;94.70;;;;;;5046413;28;20228;-78
2022/07/26 11:08:09;;;;;;;4.65;0.82;;;22.30;94.50;;;;;;5042316;28;20366;-78
2022/07/26 11:10:38;;;;;;;2.00;0.80;;;22.30;94.20;;;;;;5039930;28;21282;-78
2022/07/26 11:13:12;;;;;;;4.20;0.93;;;22.30;94.30;;;;;;5043686;28;20231;-78
2022/07/26 11:15:41;;;;;;;2.90;1.00;;;22.30;92.70;;;;;;5045899;28;20229;-78
2022/07/26 11:18:10;;;;;;;5.18;1.15;;;22.30;92.70;;;;;;5041275;28;20311;-77
2022/07/26 11:20:37;;;;;;;2.38;0.70;;;22.40;93.50;;;;;;5049279;28;20224;-78
2022/07/26 11:23:04;;;;;;;3.50;0.90;;;22.50;92.10;;;;;;5045379;28;20216;-78
2022/07/26 11:25:30;;;;;;;5.82;1.10;;;22.60;92.10;;;;;;5053250;28;20228;-78
2022/07/26 11:28:03;;;;;;;2.22;0.70;;;22.70;92.10;;;;;;5035188;28;20524;-78
2022/07/26 11:30:31;;;;;;;5.35;1.20;;;22.90;91.30;;;;;;5048106;28;20463;-78
2022/07/26 11:32:58;;;;;;;4.00;1.00;;;22.90;90.20;;;;;;5039072;28;20515;-77
2022/07/26 11:35:25;;;;;;;2.75;1.13;;;22.90;90.80;;;;;;5039551;28;20227;-77
2022/07/26 11:37:54;;;;;;;6.72;1.20;;;22.90;91.00;;;;;;5044134;28;20292;-78
2022/07/26 11:40:42;;;;;;;7.13;1.33;;;22.80;91.40;;;;;;5047717;28;20973;-78
2022/07/26 11:43:08;;;;;;;4.22;1.10;;;22.80;90.60;;;;;;5041349;28;20220;-78
2022/07/26 11:45:37;;;;;;;4.72;1.38;;;22.90;91.10;;;;;;5039964;28;20700;-78
2022/07/26 11:48:04;;;;;;;3.95;1.15;;;23.10;90.60;;;;;;5045541;28;20221;-78
2022/07/26 11:50:31;;;;;;;3.90;1.40;;;23.30;90.00;;;;;;5040583;28;20227;-78
2022/07/26 11:52:58;;;;;;;4.82;1.30;;;23.40;89.10;;;;;;5042457;28;20216;-77
2022/07/26 11:55:29;;;;;;;4.93;1.30;;;23.60;88.20;;;;;;5041447;28;20228;-78
2022/07/26 11:57:56;;;;;;;4.30;1.27;;;23.80;85.10;;;;;;5043909;28;20219;-78
2022/07/26 12:00:23;;;;;;;4.80;1.45;;;23.90;86.00;;;;;;5036914;28;20302;-78
2022/07/26 12:02:51;;;;;;;4.30;1.35;;;24.00;85.20;;;;;;5035315;28;20224;-77
2022/07/26 12:05:20;;;;;;;3.08;1.10;;;23.90;83.40;;;;;;5042013;28;20228;-77
2022/07/26 12:07:54;;;;;;;4.57;1.70;;;23.90;82.50;;;;;;5035561;28;20217;-78
2022/07/26 12:10:21;;;;;;;4.28;1.38;;;23.80;81.00;;;;;;5044774;28;20219;-78
2022/07/26 12:12:48;;;;;;;6.32;1.65;;;23.90;83.40;;;;;;5040082;28;20292;-78
2022/07/26 12:15:15;;;;;;;3.67;1.15;;;24.00;82.60;;;;;;5044122;28;20216;-77
2022/07/26 12:18:00;;;;;;;3.42;1.13;;;24.20;83.60;;;;;;5042562;28;20634;-79
2022/07/26 12:20:27;;;;;;;6.68;1.20;;;24.30;81.30;;;;;;5043537;28;20629;-78
2022/07/26 12:22:59;;;;;;;5.25;1.70;;;24.50;81.00;;;;;;5037508;28;20238;-78
2022/07/26 12:25:26;;;;;;;3.55;1.42;;;24.60;79.30;;;;;;5038746;28;20346;-78
2022/07/26 12:27:53;;;;;;;4.28;1.33;;;24.60;76.70;;;;;;5040173;28;20232;-78
2022/07/26 12:30:20;;;;;;;3.97;1.77;;;24.50;76.80;;;;;;5042110;28;20308;-77
2022/07/26 12:32:50;;;;;;;7.97;1.50;;;24.40;75.80;;;;;;5042634;28;20232;-78
2022/07/26 12:35:30;;;;;;;2.42;1.15;;;24.40;76.50;;;;;;5042252;28;20239;-78
2022/07/26 12:37:57;;;;;;;2.90;1.33;;;24.30;73.70;;;;;;5045806;28;20232;-78
2022/07/26 12:40:26;;;;;;;5.28;1.50;;;24.20;73.50;;;;;;5042944;28;20232;-78
2022/07/26 12:42:57;;;;;;;6.30;1.20;;;24.10;72.60;;;;;;5038722;28;20234;-78
2022/07/26 12:45:26;;;;;;;4.32;1.30;;;24.10;72.50;;;;;;5041359;28;20231;-78
2022/07/26 12:47:55;;;;;;;5.07;1.10;;;24.10;71.80;;;;;;5043978;28;20255;-78
2022/07/26 12:50:25;;;;;;;3.15;1.27;;;24.20;72.30;;;;;;5039162;28;20612;-78
2022/07/26 12:52:52;;;;;;;3.08;1.13;;;24.30;70.00;;;;;;5035670;28;20224;-77
2022/07/26 12:55:20;;;;;;;3.75;1.13;;;24.50;70.80;;;;;;5035060;28;20221;-78
2022/07/26 12:57:48;;;;;;;3.10;1.35;;;24.70;70.50;;;;;;5054467;28;20220;-78